NORTHERN NASSAU  -  Areal Flood Advisory Areal Flood Advisory     Flash Flood Watch Flash Flood Watch     Rip Current Statement Rip Current Statement        NORTHERN QUEENS  -  Areal Flood Advisory Areal Flood Advisory     Flash Flood Watch Flash Flood Watch     Rip Current Statement Rip Current Statement        SOUTHERN NASSAU  -  Areal Flood Advisory Areal Flood Advisory     Flash Flood Watch Flash Flood Watch     Rip Current Statement Rip Current Statement        SOUTHERN QUEENS  -  Areal Flood Advisory Areal Flood Advisory     Flash Flood Watch Flash Flood Watch     Rip Current Statement Rip Current Statement        NORTHEAST SUFFOLK  -  Rip Current Statement Rip Current Statement        NORTHWEST SUFFOLK  -  Rip Current Statement Rip Current Statement        SOUTHEAST SUFFOLK  -  Rip Current Statement Rip Current Statement        SOUTHWEST SUFFOLK  -  Rip Current Statement Rip Current Statement      

Active alerts

Northern Queens
  Details for Northern Queens Areal Flood Advisory  +2 additional alerts
Southern Queens
  Details for Southern Queens Areal Flood Advisory  +2 additional alerts
Northern Nassau
  Details for Northern Nassau Areal Flood Advisory  +2 additional alerts
Southern Nassau
  Details for Southern Nassau Areal Flood Advisory  +2 additional alerts
Northwest Suffolk
  Details for Northwest Suffolk Rip Current Statement
Southwest Suffolk
  Details for Southwest Suffolk Rip Current Statement
Northeast Suffolk
  Details for Northeast Suffolk Rip Current Statement
Southeast Suffolk
  Details for Southeast Suffolk Rip Current Statement


WXM80 ListenWXM80 Stop

You find our weather info also at:

UK Metoffice

WeatherCloud

Weather Underground

Northeastern Weather Network

AWEKAS

Citizen Weather Observer Program (CWOP)

HAMweather, WeatherForYou, PWS Weather


Weather Underground History page Text

Daily Summary for April 11, 2017 Units:  Metric    English   Both
« Previous Day
Next Day »
Daily Weekly Monthly Yearly Custom
  High: Low: Average:
Temperature: 26.8 °C 10.8 °C 17.1 °C
Dew Point: 14.3 °C 8.2 °C 11 °C
Humidity: 87 % 43 % 69 %
Wind Speed: 14.5 km/h 0 km/h 4.5 km/h
Wind Gust: 22.5 km/h - -
Wind:- - South
Pressure: 1019.9 hPa 1016.8 hPa -
Precipitation: 0 mm    
Historical Graphs
 
 
Tabular Data for April 11, 2017
Time Temperature Dew Point Pressure Wind Wind Speed Wind Gust Humidity Rainfall Rate (Hourly)
00:00 14.5 °C 8.4 °C 1018.8 hPa SW 11.6 km/h 13 km/h 67 % 0 mm
00:05 14.6 °C 8.5 °C 1018.8 hPa SSW 6.9 km/h 12.9 km/h 67 % 0 mm
00:15 14.6 °C 8.6 °C 1018.8 hPa SW 3.7 km/h 7.4 km/h 67 % 0 mm
00:20 14.7 °C 8.6 °C 1018.8 hPa SSW 5.8 km/h 14.8 km/h 67 % 0 mm
00:25 14.6 °C 8.6 °C 1019.2 hPa SW 10 km/h 16.7 km/h 67 % 0 mm
00:30 14.6 °C 8.6 °C 1019.2 hPa South 3.5 km/h 9.3 km/h 67 % 0 mm
00:40 14.6 °C 8.7 °C 1018.8 hPa SSW 4.7 km/h 9.3 km/h 68 % 0 mm
00:46 14.5 °C 8.7 °C 1018.8 hPa SW 3.1 km/h 6.4 km/h 68 % 0 mm
00:51 14.4 °C 8.6 °C 1018.8 hPa SSW 6.3 km/h 11.1 km/h 68 % 0 mm
00:56 14.4 °C 8.6 °C 1018.8 hPa SSW 2.3 km/h 11.3 km/h 68 % 0 mm
01:01 14.3 °C 8.7 °C 1018.8 hPa SSW 4 km/h 7.4 km/h 69 % 0 mm
01:06 14.2 °C 8.6 °C 1018.8 hPa WSW 7.6 km/h 13 km/h 69 % 0 mm
01:11 14.1 °C 8.7 °C 1018.8 hPa WSW 3.2 km/h 11.1 km/h 70 % 0 mm
01:16 14 °C 8.6 °C 1018.8 hPa WSW 4.2 km/h 9.7 km/h 70 % 0 mm
01:21 13.9 °C 8.8 °C 1018.8 hPa SW 5 km/h 9.3 km/h 71 % 0 mm
01:26 13.9 °C 8.7 °C 1018.8 hPa SW 4.2 km/h 7.4 km/h 71 % 0 mm
01:31 13.8 °C 8.7 °C 1018.8 hPa WSW 4.2 km/h 9.3 km/h 71 % 0 mm
01:36 13.8 °C 8.8 °C 1018.8 hPa SW 5.3 km/h 11.1 km/h 72 % 0 mm
01:41 13.7 °C 8.8 °C 1018.8 hPa SSW 4.7 km/h 9.7 km/h 72 % 0 mm
01:46 13.7 °C 8.7 °C 1018.8 hPa WSW 2.9 km/h 9.3 km/h 72 % 0 mm
01:51 13.6 °C 8.7 °C 1018.8 hPa SW 4.2 km/h 5.6 km/h 72 % 0 mm
01:56 13.6 °C 8.8 °C 1018.8 hPa SSW 5 km/h 9.3 km/h 73 % 0 mm
02:01 13.4 °C 8.7 °C 1018.5 hPa SW 4.7 km/h 11.1 km/h 73 % 0 mm
02:06 13.4 °C 8.7 °C 1018.8 hPa SSW 6.9 km/h 11.1 km/h 73 % 0 mm
02:11 13.3 °C 8.8 °C 1018.8 hPa SSW 3.9 km/h 7.4 km/h 74 % 0 mm
02:16 13.2 °C 8.7 °C 1018.5 hPa SSW 3.9 km/h 6.4 km/h 74 % 0 mm
02:21 13.2 °C 8.8 °C 1018.5 hPa SW 3.1 km/h 9.3 km/h 75 % 0 mm
02:26 13.1 °C 8.7 °C 1018.5 hPa SSW 5.5 km/h 5.6 km/h 75 % 0 mm
02:31 12.9 °C 8.8 °C 1018.5 hPa SSW 3.5 km/h 6.4 km/h 76 % 0 mm
02:36 12.8 °C 8.7 °C 1018.5 hPa SSW 6.9 km/h 11.1 km/h 76 % 0 mm
02:41 12.7 °C 8.7 °C 1018.5 hPa SSW 4.7 km/h 6.4 km/h 77 % 0 mm
02:46 12.6 °C 8.7 °C 1018.2 hPa South 7.6 km/h 11.1 km/h 77 % 0 mm
02:51 12.5 °C 8.6 °C 1018.2 hPa SSW 3.7 km/h 5.6 km/h 77 % 0 mm
02:56 12.4 °C 8.7 °C 1018.2 hPa SSW 4.5 km/h 7.4 km/h 78 % 0 mm
03:01 12.4 °C 8.7 °C 1018.2 hPa SSW 5.5 km/h 7.4 km/h 78 % 0 mm
03:06 12.3 °C 8.6 °C 1018.2 hPa SW 5.6 km/h 13 km/h 78 % 0 mm
03:11 12.3 °C 8.6 °C 1018.2 hPa SSW 5.3 km/h 7.4 km/h 78 % 0 mm
03:16 12.2 °C 8.7 °C 1018.2 hPa SW 3.2 km/h 5.6 km/h 79 % 0 mm
03:21 12.2 °C 8.6 °C 1018.2 hPa SSW 2.9 km/h 6.4 km/h 79 % 0 mm
03:27 12.1 °C 8.6 °C 1018.2 hPa SSW 5 km/h 7.4 km/h 79 % 0 mm
03:32 12.1 °C 8.5 °C 1018.2 hPa SSW 6 km/h 9.3 km/h 79 % 0 mm
03:37 12 °C 8.7 °C 1017.8 hPa SSW 7.6 km/h 11.1 km/h 80 % 0 mm
03:42 11.9 °C 8.6 °C 1017.8 hPa SSW 3.5 km/h 7.4 km/h 80 % 0 mm
03:47 11.9 °C 8.6 °C 1017.8 hPa SSW 2.4 km/h 6.4 km/h 80 % 0 mm
03:52 11.8 °C 8.5 °C 1017.8 hPa SSW 2.7 km/h 5.6 km/h 80 % 0 mm
03:57 11.8 °C 8.6 °C 1017.8 hPa SW 4.3 km/h 7.4 km/h 81 % 0 mm
04:02 11.7 °C 8.6 °C 1018.2 hPa SW 4.8 km/h 6.4 km/h 81 % 0 mm
04:07 11.7 °C 8.5 °C 1018.2 hPa SW 1.4 km/h 5.6 km/h 81 % 0 mm
04:12 11.6 °C 8.4 °C 1018.2 hPa Calm     81 % 0 mm
04:17 11.6 °C 8.4 °C 1018.2 hPa SW 0.2 km/h 5.6 km/h 81 % 0 mm
04:22 11.5 °C 8.6 °C 1018.2 hPa SW 1.1 km/h 3.7 km/h 82 % 0 mm
04:27 11.4 °C 8.5 °C 1018.2 hPa SW 3.7 km/h 5.6 km/h 82 % 0 mm
04:32 11.4 °C 8.4 °C 1018.2 hPa South 5.5 km/h 6.4 km/h 82 % 0 mm
04:37 11.3 °C 8.6 °C 1018.2 hPa South 5.1 km/h 6.4 km/h 83 % 0 mm
04:42 11.3 °C 8.5 °C 1018.2 hPa SSW 3.7 km/h 5.6 km/h 83 % 0 mm
04:47 11.2 °C 8.6 °C 1018.2 hPa SW 1.3 km/h 5.6 km/h 84 % 0 mm
04:52 11.2 °C 8.6 °C 1018.2 hPa SSW 1.4 km/h 5.6 km/h 84 % 0 mm
04:57 11.1 °C 8.5 °C 1018.2 hPa SSW 1.9 km/h 3.7 km/h 84 % 0 mm
05:02 11.1 °C 8.4 °C 1018.2 hPa SSW 2.4 km/h 3.7 km/h 84 % 0 mm
05:07 11.1 °C 8.4 °C 1018.2 hPa SW 1.3 km/h 5.6 km/h 84 % 0 mm
05:12 11 °C 8.6 °C 1018.2 hPa SSW 2.9 km/h 5.6 km/h 85 % 0 mm
05:17 10.9 °C 8.5 °C 1018.2 hPa SSW 4.8 km/h 11.1 km/h 85 % 0 mm
05:22 10.9 °C 8.5 °C 1018.2 hPa SSW 1.1 km/h 5.6 km/h 85 % 0 mm
05:27 10.9 °C 8.5 °C 1018.2 hPa SW 3.9 km/h 3.9 km/h 85 % 0 mm
05:32 10.9 °C 8.5 °C 1018.5 hPa SSW 3.2 km/h 9.7 km/h 85 % 0 mm
05:37 10.9 °C 8.5 °C 1018.5 hPa SSW 4.8 km/h 9.7 km/h 85 % 0 mm
05:42 10.9 °C 8.5 °C 1018.5 hPa SW 2.7 km/h 5.6 km/h 85 % 0 mm
05:47 10.9 °C 8.5 °C 1018.5 hPa SSW 3.2 km/h 9.7 km/h 85 % 0 mm
05:52 11 °C 8.6 °C 1018.8 hPa SSW 1.6 km/h 6.4 km/h 85 % 0 mm
05:57 11 °C 8.6 °C 1018.8 hPa SSW 0.3 km/h 3.7 km/h 85 % 0 mm
06:02 11 °C 8.6 °C 1018.8 hPa SSW 1.6 km/h 5.6 km/h 85 % 0 mm
06:03 11 °C 8.6 °C 1018.8 hPa SSW 0.2 km/h 5.6 km/h 85 % 0 mm
06:08 11 °C 8.6 °C 1018.8 hPa SSW 0.8 km/h   85 % 0 mm
06:13 11 °C 8.6 °C 1018.8 hPa Calm   1.9 km/h 85 % 0 mm
06:18 11 °C 8.6 °C 1018.8 hPa Calm     85 % 0 mm
06:23 11 °C 8.6 °C 1018.8 hPa Calm     85 % 0 mm
06:28 10.9 °C 8.3 °C 1018.8 hPa Calm   3.7 km/h 84 % 0 mm
06:33 10.9 °C 8.3 °C 1018.8 hPa Calm   1.9 km/h 84 % 0 mm
06:38 10.8 °C 8.2 °C 1018.8 hPa SSW 0.3 km/h 1.9 km/h 84 % 0 mm
06:43 10.8 °C 8.3 °C 1018.8 hPa Calm     85 % 0 mm
06:48 10.8 °C 8.3 °C 1018.8 hPa Calm     85 % 0 mm
06:53 10.8 °C 8.6 °C 1018.8 hPa West 0.8 km/h 5.6 km/h 86 % 0 mm
06:58 10.8 °C 8.6 °C 1019.2 hPa Calm     86 % 0 mm
07:03 10.8 °C 8.6 °C 1019.2 hPa Calm     86 % 0 mm
07:08 10.9 °C 8.7 °C 1019.2 hPa Calm     86 % 0 mm
07:13 11.1 °C 9 °C 1019.5 hPa Calm     87 % 0 mm
07:18 11.2 °C 8.9 °C 1019.5 hPa WSW 1.1 km/h 6.4 km/h 86 % 0 mm
07:23 11.4 °C 9.3 °C 1019.5 hPa Calm     87 % 0 mm
07:28 11.6 °C 9.5 °C 1019.2 hPa SW 3.7 km/h 6.4 km/h 87 % 0 mm
07:33 11.9 °C 9.6 °C 1019.2 hPa South 2.3 km/h 5.6 km/h 86 % 0 mm
07:39 12.2 °C 9.7 °C 1019.2 hPa South 0.2 km/h 1.9 km/h 85 % 0 mm
07:44 12.6 °C 9.9 °C 1019.2 hPa SW 1.9 km/h 9.3 km/h 84 % 0 mm
07:49 12.8 °C 10 °C 1019.5 hPa SW 5.1 km/h 5.6 km/h 83 % 0 mm
07:54 13.2 °C 10.2 °C 1019.5 hPa WSW 3.4 km/h 9.3 km/h 82 % 0 mm
07:59 13.5 °C 10.1 °C 1019.5 hPa WSW 7.7 km/h 13 km/h 80 % 0 mm
08:04 13.9 °C 10.2 °C 1019.5 hPa SSW 5.5 km/h 11.1 km/h 78 % 0 mm
08:09 14.3 °C 10.3 °C 1019.5 hPa SW 2.7 km/h 9.3 km/h 77 % 0 mm
08:19 15.1 °C 10.7 °C 1019.5 hPa SW 6.3 km/h 11.1 km/h 75 % 0 mm
08:24 15.5 °C 10.9 °C 1019.5 hPa SW 8.2 km/h 11.3 km/h 74 % 0 mm
08:29 15.8 °C 10.8 °C 1019.5 hPa SW 6.8 km/h 13 km/h 72 % 0 mm
08:34 16.2 °C 10.9 °C 1019.5 hPa SW 5.1 km/h 7.4 km/h 71 % 0 mm
08:39 16.5 °C 11 °C 1019.5 hPa SW 6.6 km/h 11.1 km/h 70 % 0 mm
08:44 16.8 °C 11.3 °C 1019.5 hPa WSW 8.2 km/h 12.9 km/h 70 % 0 mm
08:50 17.1 °C 11.6 °C 1019.5 hPa SSW 5.3 km/h 7.4 km/h 70 % 0 mm
08:55 17.5 °C 11.5 °C 1019.2 hPa South 5.6 km/h 9.3 km/h 68 % 0 mm
09:00 17.9 °C 12.1 °C 1019.2 hPa SW 4.8 km/h 11.3 km/h 69 % 0 mm
09:05 18.3 °C 11.4 °C 1019.5 hPa South 8.7 km/h 14.8 km/h 64 % 0 mm
09:10 18.6 °C 11.7 °C 1019.5 hPa SSW 11.4 km/h 17.7 km/h 64 % 0 mm
09:15 18.8 °C 11.4 °C 1019.5 hPa SSW 8.9 km/h 16.7 km/h 62 % 0 mm
09:20 19.1 °C 11.6 °C 1019.9 hPa SW 6.9 km/h 13 km/h 62 % 0 mm
09:25 19.2 °C 11.8 °C 1019.9 hPa SW 4.7 km/h 7.4 km/h 62 % 0 mm
09:30 19.4 °C 11.7 °C 1019.9 hPa WNW 1.4 km/h 3.7 km/h 61 % 0 mm
09:35 19.7 °C 11.4 °C 1019.9 hPa WSW 8.5 km/h 11.3 km/h 59 % 0 mm
09:40 19.8 °C 11.6 °C 1019.9 hPa West 3.4 km/h 14.8 km/h 59 % 0 mm
09:45 19.9 °C 11.7 °C 1019.9 hPa NW 3.9 km/h 9.3 km/h 59 % 0 mm
09:50 19.8 °C 11.1 °C 1019.9 hPa WNW 5 km/h 9.7 km/h 57 % 0 mm
09:55 19.3 °C 10.6 °C 1019.9 hPa NW 4.2 km/h 5.6 km/h 57 % 0 mm
10:00 18.6 °C 10.4 °C 1019.9 hPa NW 4.7 km/h 8 km/h 59 % 0 mm
10:05 17.7 °C 10.6 °C 1019.9 hPa NW 1.1 km/h 3.7 km/h 63 % 0 mm
10:11 17.7 °C 11 °C 1019.9 hPa NNW 1.8 km/h 5.6 km/h 65 % 0 mm
10:16 17.4 °C 10.6 °C 1019.9 hPa ENE 2.6 km/h 3.7 km/h 64 % 0 mm
10:21 17.3 °C 10.9 °C 1019.9 hPa ENE 3.2 km/h 5.6 km/h 66 % 0 mm
10:26 17.3 °C 11.2 °C 1019.9 hPa NNE 2.3 km/h 5.6 km/h 67 % 0 mm
10:31 17.2 °C 10.6 °C 1019.9 hPa ENE 3.9 km/h 5.6 km/h 65 % 0 mm
10:36 16.7 °C 10.1 °C 1019.5 hPa ENE 3.2 km/h 5.6 km/h 65 % 0 mm
10:41 16.6 °C 10.6 °C 1019.5 hPa ENE 1.9 km/h 3.7 km/h 68 % 0 mm
10:46 16.6 °C 11.1 °C 1019.9 hPa ENE 3.7 km/h 5.6 km/h 70 % 0 mm
10:51 17 °C 11.3 °C 1019.9 hPa NE 1.9 km/h 5.6 km/h 69 % 0 mm
10:56 17.2 °C 11.1 °C 1019.5 hPa ENE 2.9 km/h 5.6 km/h 67 % 0 mm
11:01 17.1 °C 10.7 °C 1019.5 hPa NNE 6 km/h 7.4 km/h 66 % 0 mm
11:06 17.5 °C 11.5 °C 1019.5 hPa NNE 2.9 km/h 4.8 km/h 68 % 0 mm
11:11 18.1 °C 11.7 °C 1019.5 hPa NE 2.4 km/h 5.6 km/h 66 % 0 mm
11:16 18.2 °C 11 °C 1019.5 hPa ENE 2.7 km/h 5.6 km/h 63 % 0 mm
11:21 18.5 °C 11.8 °C 1019.5 hPa NNE 0.6 km/h 3.7 km/h 65 % 0 mm
11:26 19.1 °C 12.6 °C 1019.5 hPa NE 3.1 km/h 5.6 km/h 66 % 0 mm
11:31 19.1 °C 11.3 °C 1019.2 hPa ENE 4 km/h 5.6 km/h 61 % 0 mm
11:36 19.3 °C 11.8 °C 1019.2 hPa ENE 4.7 km/h 6.4 km/h 62 % 0 mm
11:41 19 °C 11.6 °C 1019.2 hPa ENE 2.1 km/h 3.7 km/h 62 % 0 mm
11:46 19.3 °C 12.3 °C 1019.2 hPa NE 2.4 km/h 5.6 km/h 64 % 0 mm
11:51 19.2 °C 11.4 °C 1019.2 hPa NE 2.7 km/h 5.6 km/h 61 % 0 mm
11:56 19.5 °C 12 °C 1019.2 hPa ENE 4.3 km/h 5.6 km/h 62 % 0 mm
12:02 19.5 °C 12.3 °C 1018.8 hPa NE 2.3 km/h 5.6 km/h 63 % 0 mm
12:07 19.6 °C 12.1 °C 1018.8 hPa NE 2.6 km/h 5.6 km/h 62 % 0 mm
12:12 19.9 °C 12.2 °C 1018.8 hPa ENE 2.1 km/h 3.7 km/h 61 % 0 mm
12:17 19.9 °C 11.9 °C 1018.8 hPa NE 3.9 km/h 5.6 km/h 60 % 0 mm
12:22 20.2 °C 12.4 °C 1018.5 hPa ENE 2.1 km/h 4.8 km/h 61 % 0 mm
12:27 20.2 °C 12.9 °C 1018.8 hPa NNE 1.9 km/h 5.6 km/h 63 % 0 mm
12:32 20.7 °C 13.4 °C 1018.5 hPa NNE 2.3 km/h 3.7 km/h 63 % 0 mm
12:37 20.9 °C 12.1 °C 1018.5 hPa ENE 2.4 km/h 5.6 km/h 57 % 0 mm
12:42 21 °C 12.9 °C 1018.5 hPa NE 3.9 km/h 5.6 km/h 60 % 0 mm
12:47 21.6 °C 12.9 °C 1018.5 hPa NE 3.4 km/h 4.8 km/h 58 % 0 mm
12:52 21.4 °C 12.5 °C 1018.5 hPa ENE 3.5 km/h 7.4 km/h 57 % 0 mm
12:57 21.1 °C 12.5 °C 1018.5 hPa ENE 4.3 km/h 5.6 km/h 58 % 0 mm
13:02 21.1 °C 12.8 °C 1018.5 hPa NE 2.6 km/h 5.6 km/h 59 % 0 mm
13:07 21.1 °C 12.5 °C 1018.5 hPa NE 3.7 km/h 5.6 km/h 58 % 0 mm
13:12 21.4 °C 13.4 °C 1018.5 hPa NE 1.6 km/h 4.8 km/h 60 % 0 mm
13:17 21.7 °C 13.3 °C 1018.5 hPa ENE 3.2 km/h 6.4 km/h 59 % 0 mm
13:22 21.8 °C 13.1 °C 1018.5 hPa ENE 1.6 km/h 4.8 km/h 58 % 0 mm
13:27 21.9 °C 13.3 °C 1018.2 hPa ENE 1.6 km/h 4.8 km/h 58 % 0 mm
13:36 22.8 °C 14.1 °C 1018.2 hPa South 9.3 km/h 18.5 km/h 58 % 0 mm
13:41 23.6 °C 13.8 °C 1017.8 hPa SE 10.8 km/h 14.8 km/h 54 % 0 mm
13:46 24.2 °C 14.3 °C 1017.8 hPa South 10.1 km/h 16.7 km/h 54 % 0 mm
13:51 24.7 °C 13.9 °C 1017.8 hPa SSE 6.6 km/h 13 km/h 51 % 0 mm
13:56 25.1 °C 13.9 °C 1018.2 hPa South 10 km/h 16.7 km/h 50 % 0 mm
14:01 25.2 °C 13.7 °C 1017.8 hPa South 6 km/h 14.8 km/h 49 % 0 mm
14:06 25.6 °C 13.8 °C 1017.8 hPa South 7.9 km/h 13 km/h 48 % 0 mm
14:11 26 °C 13.2 °C 1017.8 hPa SSE 6.8 km/h 13 km/h 45 % 0 mm
14:17 26.1 °C 13.9 °C 1017.8 hPa South 3.2 km/h 5.6 km/h 47 % 0 mm
14:22 26.2 °C 13.6 °C 1017.8 hPa South 3.1 km/h 5.6 km/h 46 % 0 mm
14:27 26.5 °C 13.6 °C 1017.8 hPa SW 4.3 km/h 11.3 km/h 45 % 0 mm
14:32 26.6 °C 12.9 °C 1017.8 hPa SE 12.7 km/h 20.4 km/h 43 % 0 mm
14:37 26.6 °C 13.7 °C 1017.5 hPa SE 3.4 km/h 7.4 km/h 45 % 0 mm
14:42 26.7 °C 13.7 °C 1017.5 hPa SSE 2.7 km/h 8 km/h 45 % 0 mm
14:47 26.8 °C 13.2 °C 1017.5 hPa South 13.8 km/h 20.4 km/h 43 % 0 mm
14:52 26.3 °C 13.4 °C 1017.5 hPa South 6.6 km/h 16.7 km/h 45 % 0 mm
14:57 26 °C 13.2 °C 1017.2 hPa South 7.1 km/h 11.1 km/h 45 % 0 mm
15:02 26 °C 12.8 °C 1017.2 hPa South 7.1 km/h 9.7 km/h 44 % 0 mm
15:07 25.7 °C 12.9 °C 1017.2 hPa South 8.2 km/h 18.5 km/h 45 % 0 mm
15:12 25.7 °C 12.9 °C 1017.5 hPa South 8.5 km/h 16.7 km/h 45 % 0 mm
15:17 25.8 °C 12.6 °C 1017.2 hPa SSW 2.4 km/h 5.6 km/h 44 % 0 mm
15:22 25.9 °C 13.4 °C 1017.2 hPa SSE 6.6 km/h 11.1 km/h 46 % 0 mm
15:27 25.9 °C 13.7 °C 1017.2 hPa South 8 km/h 11.3 km/h 47 % 0 mm
15:32 25.8 °C 13.3 °C 1017.2 hPa SE 7.1 km/h 11.1 km/h 46 % 0 mm
15:37 25.8 °C 13 °C 1017.2 hPa SSE 9 km/h 13 km/h 45 % 0 mm
15:42 25.7 °C 13.6 °C 1017.2 hPa SSE 4.2 km/h 11.1 km/h 47 % 0 mm
15:48 25.8 °C 13.6 °C 1017.2 hPa SSW 4.3 km/h 6.4 km/h 47 % 0 mm
15:53 25.8 °C 13 °C 1017.2 hPa SSW 3.7 km/h 16.7 km/h 45 % 0 mm
15:58 25.7 °C 12.9 °C 1017.2 hPa SSW 11.3 km/h 20.4 km/h 45 % 0 mm
16:03 25.7 °C 13.5 °C 1017.5 hPa South 2.9 km/h 7.4 km/h 47 % 0 mm
16:08 25.5 °C 13.1 °C 1017.5 hPa SSW 6.6 km/h 16.7 km/h 46 % 0 mm
16:13 25.3 °C 13.2 °C 1017.5 hPa SW 7.9 km/h 11.1 km/h 47 % 0 mm
16:18 25.1 °C 12.9 °C 1017.2 hPa SW 9.8 km/h 18.5 km/h 47 % 0 mm
16:28 24.6 °C 13.2 °C 1017.2 hPa SSW 7.2 km/h 14.5 km/h 49 % 0 mm
16:33 24.4 °C 13.1 °C 1017.5 hPa South 5 km/h 9.3 km/h 49 % 0 mm
16:38 24.3 °C 13.2 °C 1017.5 hPa South 3.4 km/h 7.4 km/h 50 % 0 mm
16:43 24 °C 13.2 °C 1017.2 hPa South 3.9 km/h 11.1 km/h 51 % 0 mm
16:48 24 °C 13.8 °C 1017.2 hPa SSE 1.6 km/h 7.4 km/h 53 % 0 mm
16:53 24.1 °C 13.9 °C 1017.2 hPa SSW 5 km/h 7.4 km/h 53 % 0 mm
16:58 24.1 °C 13.6 °C 1017.2 hPa South 8 km/h 16.7 km/h 52 % 0 mm
17:03 24 °C 13.8 °C 1017.2 hPa SSW 6.6 km/h 13 km/h 53 % 0 mm
17:08 23.8 °C 13.4 °C 1017.2 hPa South 5.8 km/h 11.1 km/h 52 % 0 mm
17:13 23.6 °C 13.4 °C 1017.2 hPa South 7.6 km/h 11.1 km/h 53 % 0 mm
17:18 23.4 °C 13.6 °C 1017.2 hPa North 8.4 km/h 11.1 km/h 54 % 0 mm
17:23 23.2 °C 13.3 °C 1017.2 hPa SSW 6 km/h 11.1 km/h 54 % 0 mm
17:29 23 °C 13.2 °C 1017.2 hPa South 1.8 km/h 3.7 km/h 54 % 0 mm
17:34 22.9 °C 13.4 °C 1017.2 hPa SW 4.5 km/h 6.4 km/h 55 % 0 mm
17:39 22.8 °C 13.3 °C 1017.5 hPa SSE 4.2 km/h 7.4 km/h 55 % 0 mm
17:44 22.6 °C 13.4 °C 1017.5 hPa SSW 5.8 km/h 14.8 km/h 56 % 0 mm
17:49 22.4 °C 13.2 °C 1017.5 hPa SSE 6.6 km/h 9.7 km/h 56 % 0 mm
17:54 22.2 °C 13.3 °C 1017.2 hPa South 3.7 km/h 5.6 km/h 57 % 0 mm
17:59 22.1 °C 13.2 °C 1017.2 hPa South 6.9 km/h 9.7 km/h 57 % 0 mm
18:04 21.7 °C 13.1 °C 1017.2 hPa South 10.5 km/h 16.7 km/h 58 % 0 mm
18:09 21.3 °C 13 °C 1017.2 hPa SSW 7.2 km/h 14.8 km/h 59 % 0 mm
18:14 21.2 °C 13.1 °C 1017.2 hPa South 6.8 km/h 14.8 km/h 60 % 0 mm
18:19 21.1 °C 13 °C 1017.2 hPa SW 5.8 km/h 14.8 km/h 60 % 0 mm
18:24 20.9 °C 13.1 °C 1017.2 hPa SSW 6.8 km/h 11.1 km/h 61 % 0 mm
18:29 20.7 °C 12.9 °C 1017.2 hPa SSW 11.6 km/h 18.5 km/h 61 % 0 mm
18:34 20.5 °C 12.7 °C 1017.2 hPa SSW 7.2 km/h 14.8 km/h 61 % 0 mm
18:39 20.4 °C 12.9 °C 1017.2 hPa South 2.4 km/h 7.4 km/h 62 % 0 mm
18:45 20.3 °C 12.8 °C 1017.2 hPa South 5.8 km/h 11.1 km/h 62 % 0 mm
18:50 20.2 °C 12.9 °C 1017.2 hPa SSW 7.4 km/h 14.8 km/h 63 % 0 mm
18:55 19.9 °C 12.7 °C 1016.8 hPa SW 9.3 km/h 13 km/h 63 % 0 mm
19:00 19.8 °C 12.8 °C 1016.8 hPa South 10.5 km/h 16.1 km/h 64 % 0 mm
19:05 19.5 °C 12.5 °C 1016.8 hPa South 10 km/h 16.7 km/h 64 % 0 mm
19:10 19.2 °C 12.5 °C 1016.8 hPa South 9.8 km/h 18.5 km/h 65 % 0 mm
19:15 19 °C 12.5 °C 1016.8 hPa SSW 9.8 km/h 14.8 km/h 66 % 0 mm
19:20 18.8 °C 12.3 °C 1016.8 hPa SSW 10.8 km/h 18.5 km/h 66 % 0 mm
19:25 18.6 °C 12.3 °C 1016.8 hPa South 10.3 km/h 16.7 km/h 67 % 0 mm
19:30 18.3 °C 12.3 °C 1016.8 hPa South 8 km/h 18.5 km/h 68 % 0 mm
19:35 18.2 °C 12.2 °C 1016.8 hPa SSW 12.9 km/h 19.3 km/h 68 % 0 mm
19:40 17.9 °C 12.2 °C 1016.8 hPa South 14.5 km/h 20.9 km/h 69 % 0 mm
19:45 17.7 °C 12.2 °C 1016.8 hPa South 10.1 km/h 14.8 km/h 70 % 0 mm
19:50 17.6 °C 12.1 °C 1016.8 hPa South 9.2 km/h 14.5 km/h 70 % 0 mm
19:55 17.4 °C 12.1 °C 1016.8 hPa South 9.2 km/h 16.7 km/h 71 % 0 mm
20:00 17.3 °C 12 °C 1016.8 hPa SW 10 km/h 16.7 km/h 71 % 0 mm
20:05 17.2 °C 12.1 °C 1016.8 hPa South 10 km/h 17.7 km/h 72 % 0 mm
20:07 17.2 °C 12.1 °C 1016.8 hPa South 9.5 km/h 18.5 km/h 72 % 0 mm
20:12 17 °C 11.9 °C 1016.8 hPa SSW 10.1 km/h 18.5 km/h 72 % 0 mm
20:17 16.8 °C 11.9 °C 1016.8 hPa South 12.9 km/h 19.3 km/h 73 % 0 mm
20:22 16.7 °C 11.8 °C 1016.8 hPa South 8 km/h 19.3 km/h 73 % 0 mm
20:27 16.6 °C 11.9 °C 1016.8 hPa South 9.7 km/h 22.5 km/h 74 % 0 mm
20:32 16.4 °C 11.7 °C 1017.2 hPa South 9.7 km/h 19.3 km/h 74 % 0 mm
20:37 16.2 °C 11.8 °C 1017.2 hPa South 9.7 km/h 16.1 km/h 75 % 0 mm
20:42 16.1 °C 11.6 °C 1017.2 hPa South 8 km/h 16.1 km/h 75 % 0 mm
20:47 15.9 °C 11.5 °C 1017.2 hPa South 4.8 km/h 11.3 km/h 75 % 0 mm
20:52 15.8 °C 11.6 °C 1017.5 hPa SSW 3.2 km/h 14.5 km/h 76 % 0 mm
20:57 15.7 °C 11.5 °C 1017.2 hPa SSW 7.1 km/h 7.1 km/h 76 % 0 mm
21:02 15.6 °C 11.4 °C 1017.5 hPa WSW 5.5 km/h 11.3 km/h 76 % 0 mm
21:07 15.5 °C 11.3 °C 1017.5 hPa South 3.9 km/h 7.4 km/h 76 % 0 mm
21:12 15.3 °C 11.3 °C 1017.5 hPa SW 3.1 km/h 5.6 km/h 77 % 0 mm
21:18 15.3 °C 11.3 °C 1017.5 hPa SW 3.1 km/h 7.4 km/h 77 % 0 mm
21:23 15.2 °C 11.2 °C 1017.5 hPa SW 0.2 km/h 7.4 km/h 77 % 0 mm
21:28 15.1 °C 11.3 °C 1017.5 hPa SE 0.3 km/h 1.9 km/h 78 % 0 mm
21:33 15.1 °C 11.2 °C 1017.8 hPa South 0.2 km/h 1.9 km/h 78 % 0 mm
21:38 15 °C 11.2 °C 1017.8 hPa Calm   1.9 km/h 78 % 0 mm
21:43 14.9 °C 11.2 °C 1017.8 hPa SE 2.3 km/h 7.4 km/h 78 % 0 mm
21:48 14.9 °C 11.1 °C 1017.8 hPa SW 2.9 km/h 9.3 km/h 78 % 0 mm
21:53 14.8 °C 11.2 °C 1017.8 hPa SW 3.5 km/h 5.6 km/h 79 % 0 mm
21:58 14.8 °C 11.2 °C 1017.8 hPa SW 0.3 km/h 1.9 km/h 79 % 0 mm
22:03 14.7 °C 11.1 °C 1017.8 hPa SSW 5.1 km/h 11.1 km/h 79 % 0 mm
22:08 14.7 °C 11.1 °C 1017.8 hPa SSW 3.4 km/h 5.6 km/h 79 % 0 mm
22:13 14.7 °C 11.1 °C 1017.5 hPa SW 0.6 km/h 1.9 km/h 79 % 0 mm
22:18 14.6 °C 11 °C 1017.8 hPa SW 3.1 km/h 5.6 km/h 79 % 0 mm
22:21 14.6 °C 11 °C 1017.8 hPa SSW 4 km/h 8 km/h 79 % 0 mm
22:26 14.6 °C 11.2 °C 1017.8 hPa SW 2.6 km/h 8 km/h 80 % 0 mm
22:31 14.6 °C 11.2 °C 1017.8 hPa SW 0.3 km/h 5.6 km/h 80 % 0 mm
22:36 14.5 °C 11.1 °C 1017.8 hPa Calm   1.9 km/h 80 % 0 mm
22:41 14.5 °C 11.1 °C 1017.8 hPa Calm     80 % 0 mm
22:46 14.4 °C 11.1 °C 1017.8 hPa WSW 1.9 km/h 4.8 km/h 80 % 0 mm
22:51 14.4 °C 11 °C 1017.8 hPa SW 3.2 km/h 5.6 km/h 80 % 0 mm
22:56 14.3 °C 10.9 °C 1017.8 hPa WSW 4.5 km/h 7.4 km/h 80 % 0 mm
23:01 14.3 °C 10.9 °C 1017.8 hPa SW 2.9 km/h 6.4 km/h 80 % 0 mm
23:07 14.2 °C 11 °C 1017.8 hPa SSW 3.2 km/h 6.4 km/h 81 % 0 mm
23:12 14.2 °C 10.9 °C 1017.8 hPa SSW 1.9 km/h 5.6 km/h 81 % 0 mm
23:17 14.1 °C 10.9 °C 1017.8 hPa Calm   1.9 km/h 81 % 0 mm
23:22 14.1 °C 10.7 °C 1018.2 hPa Calm     80 % 0 mm
23:27 14 °C 10.6 °C 1018.2 hPa NNE 4.7 km/h 5.6 km/h 80 % 0 mm
23:32 13.9 °C 10.7 °C 1018.5 hPa North 1.1 km/h 3.7 km/h 81 % 0 mm
23:37 13.8 °C 10.6 °C 1018.5 hPa Calm     81 % 0 mm
23:42 13.8 °C 10.6 °C 1018.5 hPa North 0.8 km/h 1.9 km/h 81 % 0 mm
23:47 13.6 °C 10.4 °C 1018.5 hPa Calm     81 % 0 mm
23:52 13.5 °C 10.3 °C 1018.5 hPa Calm     81 % 0 mm
23:57 13.4 °C 10.2 °C 1018.5 hPa Calm     81 % 0 mm
Crab Meadow Weather
Compliments of Weather Underground - 3 mb

Script developed by  Jim McMurry - jmcmurry@mwt.net Adapted for the template by  Wim van der Kuil - Leuven-Template.eu

Astronomy: It takes Saturn exactly 29.46 years to travel once around the Sun.